createdAt,value
2022-11-19T00:01:26.416Z,16.45
2022-11-19T00:03:53.755Z,15.80
2022-11-19T00:06:26.872Z,14.20
2022-11-19T00:08:54.962Z,14.07
2022-11-19T00:11:43.298Z,14.18
2022-11-19T00:14:12.812Z,17.42
2022-11-19T00:16:41.258Z,14.93
2022-11-19T00:19:10.461Z,17.80
2022-11-19T00:21:38.085Z,15.45
2022-11-19T00:24:05.718Z,15.90
2022-11-19T00:26:33.226Z,11.18
2022-11-19T00:29:01.128Z,13.40
2022-11-19T00:31:28.588Z,12.02
2022-11-19T00:33:55.887Z,12.35
2022-11-19T00:36:23.849Z,12.30
2022-11-19T00:38:51.215Z,13.30
2022-11-19T00:41:19.548Z,13.38
2022-11-19T00:43:47.176Z,12.82
2022-11-19T00:46:14.828Z,13.93
2022-11-19T00:48:42.451Z,14.30
2022-11-19T00:51:10.661Z,14.10
2022-11-19T00:53:38.048Z,16.75
2022-11-19T00:56:09.307Z,14.50
2022-11-19T00:58:37.018Z,15.13
2022-11-19T01:01:05.499Z,13.80
2022-11-19T01:03:33.220Z,11.55
2022-11-19T01:06:01.409Z,14.25
2022-11-19T01:08:28.796Z,12.70
2022-11-19T01:10:56.350Z,12.10
2022-11-19T01:13:35.586Z,12.27
2022-11-19T01:16:15.296Z,11.93
2022-11-19T01:18:43.945Z,14.52
2022-11-19T01:21:12.670Z,12.35
2022-11-19T01:23:41.034Z,11.82
2022-11-19T01:26:09.699Z,11.10
2022-11-19T01:28:37.345Z,15.18
2022-11-19T01:31:13.734Z,15.68
2022-11-19T01:33:41.063Z,12.25
2022-11-19T01:36:12.446Z,10.02
2022-11-19T01:38:39.679Z,10.60
2022-11-19T01:41:08.140Z,10.68
2022-11-19T01:43:48.848Z,12.05
2022-11-19T01:46:22.448Z,11.23
2022-11-19T01:49:05.374Z,10.55
2022-11-19T01:51:49.084Z,11.30
2022-11-19T01:54:25.554Z,10.52
2022-11-19T01:56:56.494Z,8.82
2022-11-19T01:59:24.322Z,8.93
2022-11-19T02:01:51.721Z,11.43
2022-11-19T02:04:20.830Z,10.75
2022-11-19T02:06:48.549Z,12.70
2022-11-19T02:09:15.754Z,13.52
2022-11-19T02:12:02.406Z,11.98
2022-11-19T02:14:54.828Z,9.88
2022-11-19T02:17:22.694Z,10.98
2022-11-19T02:20:17.687Z,11.98
2022-11-19T02:23:13.204Z,11.23
2022-11-19T02:26:17.892Z,11.43
2022-11-19T02:29:08.894Z,11.65
2022-11-19T02:31:46.344Z,10.45
2022-11-19T02:34:22.361Z,11.82
2022-11-19T02:37:14.823Z,12.18
2022-11-19T02:39:51.333Z,10.15
2022-11-19T02:42:49.149Z,10.18
2022-11-19T02:45:28.100Z,10.30
2022-11-19T02:47:59.944Z,11.38
2022-11-19T02:50:33.663Z,11.07
2022-11-19T02:53:03.450Z,10.85
2022-11-19T02:55:31.466Z,10.65
2022-11-19T02:58:04.570Z,9.98
2022-11-19T03:01:16.878Z,10.38
2022-11-19T03:04:02.796Z,10.75
2022-11-19T03:06:32.811Z,11.35
2022-11-19T03:09:00.847Z,12.57
2022-11-19T03:11:30.410Z,11.20
2022-11-19T03:14:42.513Z,11.25
2022-11-19T03:17:26.668Z,9.27
2022-11-19T03:20:34.715Z,9.63
2022-11-19T03:23:09.728Z,10.68
2022-11-19T03:26:07.637Z,10.15
2022-11-19T03:28:38.049Z,9.65
2022-11-19T03:31:06.229Z,9.48
2022-11-19T03:33:43.199Z,9.68
2022-11-19T03:36:20.079Z,12.00
2022-11-19T03:38:52.854Z,11.10
2022-11-19T03:41:22.835Z,10.95
2022-11-19T03:44:04.652Z,10.65
2022-11-19T03:46:35.511Z,9.27
2022-11-19T03:49:06.613Z,9.75
2022-11-19T03:51:44.017Z,10.30
2022-11-19T03:54:11.811Z,10.80
2022-11-19T03:56:41.292Z,10.48
2022-11-19T03:59:11.318Z,11.10
2022-11-19T04:01:39.205Z,11.23
2022-11-19T04:04:25.058Z,11.02
2022-11-19T04:06:52.249Z,10.60
2022-11-19T04:09:19.867Z,10.98
2022-11-19T04:14:13.701Z,13.77
2022-11-19T04:16:41.184Z,12.40
2022-11-19T04:19:08.602Z,12.65
2022-11-19T04:21:35.782Z,13.18
2022-11-19T04:24:03.306Z,10.60
2022-11-19T04:26:30.517Z,10.80
2022-11-19T04:28:57.990Z,11.70
2022-11-19T04:31:25.226Z,11.35
2022-11-19T04:33:52.947Z,10.48
2022-11-19T04:36:20.391Z,10.38
2022-11-19T04:38:48.033Z,9.93
2022-11-19T04:41:15.195Z,9.27
2022-11-19T04:43:42.863Z,10.68
2022-11-19T04:46:10.002Z,10.35
2022-11-19T04:48:37.432Z,10.20
2022-11-19T04:51:04.684Z,10.65
2022-11-19T04:53:32.236Z,10.18
2022-11-19T04:55:59.384Z,10.70
2022-11-19T04:58:26.838Z,8.70
2022-11-19T05:00:54.092Z,9.90
2022-11-19T05:03:22.062Z,11.18
2022-11-19T05:05:49.933Z,10.45
2022-11-19T05:08:17.341Z,10.95
2022-11-19T05:10:45.163Z,11.07
2022-11-19T05:13:12.697Z,10.35
2022-11-19T05:15:39.987Z,10.55
2022-11-19T05:18:07.517Z,11.48
2022-11-19T05:20:34.724Z,10.30
2022-11-19T05:23:02.209Z,10.80
2022-11-19T05:25:29.489Z,10.70
2022-11-19T05:27:57.190Z,10.30
2022-11-19T05:30:24.464Z,9.70
2022-11-19T05:32:51.908Z,9.93
2022-11-19T05:35:19.205Z,9.90
2022-11-19T05:37:49.751Z,10.35
2022-11-19T05:40:17.623Z,9.73
2022-11-19T05:42:45.060Z,9.82
2022-11-19T05:45:12.723Z,10.63
2022-11-19T05:47:43.354Z,10.00
2022-11-19T05:50:13.497Z,9.60
2022-11-19T05:52:40.992Z,10.57
2022-11-19T05:55:08.331Z,9.57
2022-11-19T05:57:37.160Z,10.02
2022-11-19T06:00:05.679Z,9.82
2022-11-19T06:02:39.849Z,10.95
2022-11-19T06:05:07.496Z,9.95
2022-11-19T06:07:35.007Z,10.15
2022-11-19T06:10:02.706Z,11.27
2022-11-19T06:12:30.151Z,9.55
2022-11-19T06:14:57.430Z,10.32
2022-11-19T06:17:24.899Z,10.07
2022-11-19T06:19:52.086Z,11.32
2022-11-19T06:22:19.550Z,10.32
2022-11-19T06:24:46.704Z,13.02
2022-11-19T06:27:14.226Z,12.13
2022-11-19T06:29:41.336Z,10.95
2022-11-19T06:32:09.019Z,10.95
2022-11-19T06:34:36.284Z,10.98
2022-11-19T06:37:03.874Z,12.35
2022-11-19T06:39:31.093Z,12.32
2022-11-19T06:42:18.450Z,11.82
2022-11-19T06:44:45.635Z,12.63
2022-11-19T06:47:13.148Z,12.82
2022-11-19T06:49:40.350Z,11.80
2022-11-19T06:52:07.885Z,11.80
2022-11-19T06:54:36.740Z,11.80
2022-11-19T06:57:07.810Z,12.65
2022-11-19T06:59:35.295Z,12.77
2022-11-19T07:02:02.725Z,12.45
2022-11-19T07:04:30.016Z,13.43
2022-11-19T07:06:57.609Z,12.95
2022-11-19T07:09:24.951Z,12.77
2022-11-19T07:11:52.436Z,14.60
2022-11-19T07:14:19.777Z,13.68
2022-11-19T07:16:47.237Z,14.25
2022-11-19T07:19:14.387Z,14.30
2022-11-19T07:21:42.010Z,16.27
2022-11-19T07:24:10.452Z,14.40
2022-11-19T07:26:38.431Z,14.65
2022-11-19T07:29:07.896Z,14.98
2022-11-19T07:31:35.479Z,15.35
2022-11-19T07:34:05.652Z,14.98
2022-11-19T07:36:33.204Z,17.13
2022-11-19T07:39:00.331Z,14.02
2022-11-19T07:41:46.487Z,15.20
2022-11-19T07:44:13.660Z,18.80
2022-11-19T07:46:41.731Z,15.18
2022-11-19T07:49:08.917Z,14.55
2022-11-19T07:51:36.682Z,15.48
2022-11-19T07:54:04.292Z,14.50
2022-11-19T07:56:31.702Z,14.35
2022-11-19T07:59:02.255Z,13.90
2022-11-19T08:01:30.244Z,17.95
2022-11-19T08:03:57.731Z,15.50
2022-11-19T08:06:28.250Z,14.48
2022-11-19T08:08:56.360Z,14.15
2022-11-19T08:11:24.395Z,15.73
2022-11-19T08:13:52.416Z,13.88
2022-11-19T08:16:39.517Z,16.30
2022-11-19T08:19:09.651Z,15.35
2022-11-19T08:21:40.892Z,15.82
2022-11-19T08:24:09.734Z,17.10
2022-11-19T08:26:37.861Z,14.73
2022-11-19T08:29:05.603Z,13.80
2022-11-19T08:31:33.534Z,14.73
2022-11-19T08:34:04.182Z,14.20
2022-11-19T08:36:32.001Z,15.27
2022-11-19T08:39:00.600Z,16.60
2022-11-19T08:41:47.232Z,15.10
2022-11-19T08:44:14.952Z,16.33
2022-11-19T08:46:42.367Z,16.52
2022-11-19T08:49:09.884Z,16.05
2022-11-19T08:51:37.519Z,14.88
2022-11-19T08:54:05.607Z,14.88
2022-11-19T08:56:33.379Z,15.65
2022-11-19T08:59:03.007Z,14.93
2022-11-19T09:01:30.810Z,15.20
2022-11-19T09:03:58.510Z,15.85
2022-11-19T09:06:26.156Z,21.80
2022-11-19T09:08:53.388Z,17.20
2022-11-19T09:11:21.796Z,16.98
2022-11-19T09:13:49.240Z,18.02
2022-11-19T09:16:17.394Z,17.08
2022-11-19T09:18:44.873Z,16.13
2022-11-19T09:21:12.616Z,13.57
2022-11-19T09:23:41.495Z,12.98
2022-11-19T09:26:14.092Z,13.75
2022-11-19T09:28:42.335Z,14.60
2022-11-19T09:31:12.838Z,13.15
2022-11-19T09:33:44.382Z,14.80
2022-11-19T09:36:13.611Z,14.02
2022-11-19T09:38:41.278Z,14.57
2022-11-19T09:41:17.696Z,15.02
2022-11-19T09:44:04.716Z,13.55
2022-11-19T09:46:46.134Z,13.00
2022-11-19T09:49:18.862Z,14.48
2022-11-19T09:51:56.119Z,14.13
2022-11-19T09:56:54.852Z,13.70
2022-11-19T09:59:38.071Z,14.60
2022-11-19T10:02:20.579Z,14.57
2022-11-19T10:04:49.930Z,20.98
2022-11-19T10:07:52.791Z,14.55
2022-11-19T10:10:28.668Z,16.27
2022-11-19T10:13:11.762Z,24.67
2022-11-19T10:16:00.069Z,13.48
2022-11-19T10:18:27.445Z,18.45
2022-11-19T10:21:06.575Z,18.70
2022-11-19T10:23:54.762Z,15.98
2022-11-19T10:26:32.030Z,94.05
2022-11-19T10:29:00.032Z,49.65
2022-11-19T10:31:50.293Z,37.17
2022-11-19T10:34:23.950Z,17.35
2022-11-19T10:37:14.301Z,14.10
2022-11-19T10:39:48.280Z,14.05
2022-11-19T10:42:36.950Z,16.85
2022-11-19T10:45:19.118Z,27.88
2022-11-19T10:48:09.362Z,14.25
2022-11-19T10:50:37.177Z,14.45
2022-11-19T10:53:23.326Z,14.90
2022-11-19T10:55:54.777Z,10.85
2022-11-19T10:58:31.491Z,14.65
2022-11-19T11:01:02.389Z,13.07
2022-11-19T11:03:48.179Z,14.50
2022-11-19T11:06:15.699Z,13.68
2022-11-19T11:09:00.718Z,15.55
2022-11-19T11:11:50.205Z,13.35
2022-11-19T11:14:39.520Z,14.98
2022-11-19T11:17:20.946Z,13.93
2022-11-19T11:20:05.342Z,17.88
2022-11-19T11:22:33.570Z,13.50
2022-11-19T11:25:07.056Z,15.38
2022-11-19T11:27:35.823Z,15.07
2022-11-19T11:30:06.380Z,14.88
2022-11-19T11:32:34.061Z,13.35
2022-11-19T11:35:06.861Z,14.30
2022-11-19T11:37:35.919Z,13.30
2022-11-19T11:40:03.319Z,13.65
2022-11-19T11:42:30.863Z,13.85
2022-11-19T11:45:00.376Z,13.68
2022-11-19T11:47:39.600Z,12.88
2022-11-19T11:50:21.551Z,12.95
2022-11-19T11:52:54.319Z,13.65
2022-11-19T11:55:24.575Z,13.93
2022-11-19T11:58:02.908Z,12.93
2022-11-19T12:00:37.839Z,14.63
2022-11-19T12:03:05.274Z,15.82
2022-11-19T12:05:50.604Z,17.88
2022-11-19T12:08:27.071Z,14.45
2022-11-19T12:11:06.500Z,14.98
2022-11-19T12:13:45.706Z,14.25
2022-11-19T12:16:33.521Z,14.73
2022-11-19T12:19:38.365Z,12.60
2022-11-19T12:22:35.880Z,13.70
2022-11-19T12:25:25.779Z,14.05
2022-11-19T12:28:14.497Z,12.88
2022-11-19T12:30:53.449Z,12.63
2022-11-19T12:33:35.481Z,13.95
2022-11-19T12:36:19.070Z,12.88
2022-11-19T12:39:24.312Z,11.38
2022-11-19T12:42:03.909Z,12.88
2022-11-19T12:44:46.824Z,12.55
2022-11-19T12:47:50.843Z,13.02
2022-11-19T12:50:52.732Z,14.00
2022-11-19T12:53:23.341Z,13.27
2022-11-19T12:56:11.105Z,13.13
2022-11-19T12:59:04.185Z,13.02
2022-11-19T13:01:37.719Z,14.90
2022-11-19T13:04:05.293Z,13.95
2022-11-19T13:06:42.443Z,14.02
2022-11-19T13:09:30.831Z,15.10
2022-11-19T13:12:05.462Z,15.30
2022-11-19T13:14:40.146Z,16.88
2022-11-19T13:17:21.676Z,15.45
2022-11-19T13:19:53.842Z,17.25
2022-11-19T13:22:27.044Z,15.40
2022-11-19T13:25:05.612Z,16.60
2022-11-19T13:27:32.901Z,15.73
2022-11-19T13:30:16.418Z,15.82
2022-11-19T13:33:10.252Z,15.40
2022-11-19T13:35:43.765Z,14.50
2022-11-19T13:38:43.698Z,14.70
2022-11-19T13:41:13.469Z,14.25
2022-11-19T13:43:59.539Z,16.85
2022-11-19T13:46:39.093Z,14.10
2022-11-19T13:49:19.100Z,15.73
2022-11-19T13:52:07.504Z,15.90
2022-11-19T13:54:40.653Z,15.35
2022-11-19T13:57:22.558Z,17.17
2022-11-19T13:59:50.683Z,16.10
2022-11-19T14:02:40.804Z,15.93
2022-11-19T14:05:29.509Z,15.55
2022-11-19T14:08:05.698Z,14.65
2022-11-19T14:10:43.115Z,15.05
2022-11-19T14:13:31.785Z,15.13
2022-11-19T14:16:57.825Z,13.95
2022-11-19T14:19:44.201Z,14.02
2022-11-19T14:22:53.213Z,14.60
2022-11-19T14:25:57.744Z,14.75
2022-11-19T14:28:54.349Z,15.77
2022-11-19T14:31:22.010Z,13.77
2022-11-19T14:33:49.126Z,14.75
2022-11-19T14:36:25.705Z,14.88
2022-11-19T14:39:05.810Z,15.40
2022-11-19T14:41:35.184Z,15.05
2022-11-19T14:44:09.831Z,16.75
2022-11-19T14:46:48.771Z,13.60
2022-11-19T14:49:26.500Z,16.95
2022-11-19T14:51:56.743Z,19.30
2022-11-19T14:54:32.928Z,17.05
2022-11-19T14:57:07.900Z,17.30
2022-11-19T14:59:38.169Z,18.20
2022-11-19T15:02:24.312Z,20.63
2022-11-19T15:04:51.517Z,19.80
2022-11-19T15:07:36.520Z,20.08
2022-11-19T15:10:09.930Z,22.13
2022-11-19T15:12:43.372Z,27.75
2022-11-19T15:15:19.734Z,36.90
2022-11-19T15:17:49.081Z,42.88
2022-11-19T15:20:33.258Z,43.03
2022-11-19T15:23:22.068Z,34.00
2022-11-19T15:26:07.010Z,31.98
2022-11-19T15:28:45.902Z,30.38
2022-11-19T15:31:40.684Z,23.02
2022-11-19T15:34:38.617Z,22.92
2022-11-19T15:37:17.875Z,21.52
2022-11-19T15:39:52.588Z,20.60
2022-11-19T15:42:38.673Z,25.77
2022-11-19T15:45:16.486Z,24.35
2022-11-19T15:48:08.607Z,24.25
2022-11-19T15:50:37.307Z,24.00
2022-11-19T15:53:17.892Z,25.17
2022-11-19T15:55:56.000Z,22.67
2022-11-19T15:58:27.338Z,24.98
2022-11-19T16:00:55.466Z,25.42
2022-11-19T16:03:23.405Z,26.25
2022-11-19T16:06:03.364Z,22.50
2022-11-19T16:08:31.266Z,22.45
2022-11-19T16:11:20.451Z,22.95
2022-11-19T16:14:10.851Z,23.13
2022-11-19T16:16:58.215Z,24.05
2022-11-19T16:19:25.495Z,25.98
2022-11-19T16:22:02.845Z,25.95
2022-11-19T16:24:50.573Z,25.63
2022-11-19T16:27:24.279Z,27.30
2022-11-19T16:29:51.840Z,25.17
2022-11-19T16:32:21.890Z,28.58
2022-11-19T16:34:49.441Z,30.33
2022-11-19T16:37:20.729Z,28.15
2022-11-19T16:39:53.505Z,28.17
2022-11-19T16:42:26.884Z,27.38
2022-11-19T16:45:24.184Z,54.03
2022-11-19T16:48:00.824Z,62.22
2022-11-19T16:50:36.388Z,64.72
2022-11-19T16:53:06.409Z,70.03
2022-11-19T16:55:36.479Z,65.20
2022-11-19T16:58:14.927Z,67.13
2022-11-19T17:00:47.864Z,57.97
2022-11-19T17:03:25.887Z,54.05
2022-11-19T17:05:54.016Z,56.58
2022-11-19T17:08:33.013Z,53.50
2022-11-19T17:11:38.743Z,50.72
2022-11-19T17:14:25.831Z,49.33
2022-11-19T17:16:54.026Z,55.13
2022-11-19T17:19:32.608Z,54.65
2022-11-19T17:22:21.742Z,52.90
2022-11-19T17:24:50.102Z,55.55
2022-11-19T17:27:36.432Z,51.75
2022-11-19T17:30:22.280Z,48.17
2022-11-19T17:32:53.709Z,50.03
2022-11-19T17:35:38.910Z,51.38
2022-11-19T17:38:19.725Z,52.28
2022-11-19T17:40:58.991Z,49.55
2022-11-19T17:43:49.559Z,52.80
2022-11-19T17:46:18.031Z,47.88
2022-11-19T17:48:46.421Z,48.80
2022-11-19T17:51:16.999Z,54.13
2022-11-19T17:53:44.348Z,51.08
2022-11-19T17:56:26.894Z,50.05
2022-11-19T17:58:55.201Z,46.13
2022-11-19T18:01:23.513Z,41.63
2022-11-19T18:03:50.773Z,36.17
2022-11-19T18:06:18.713Z,35.90
2022-11-19T18:08:46.565Z,35.22
2022-11-19T18:11:17.772Z,31.80
2022-11-19T18:13:46.632Z,32.65
2022-11-19T18:16:20.123Z,35.67
2022-11-19T18:18:47.949Z,33.85
2022-11-19T18:21:18.225Z,31.00
2022-11-19T18:23:46.541Z,29.50
2022-11-19T18:26:17.265Z,31.63
2022-11-19T18:28:48.637Z,35.28
2022-11-19T18:31:20.634Z,32.78
2022-11-19T18:33:48.258Z,31.25
2022-11-19T18:36:16.769Z,29.60
2022-11-19T18:38:44.581Z,29.90
2022-11-19T18:41:13.881Z,29.23
2022-11-19T18:44:00.333Z,33.08
2022-11-19T18:46:27.924Z,32.00
2022-11-19T18:48:55.270Z,30.55
2022-11-19T18:51:25.521Z,33.10
2022-11-19T18:53:52.910Z,33.05
2022-11-19T18:56:20.326Z,31.65
2022-11-19T18:58:47.566Z,34.67
2022-11-19T19:01:16.527Z,35.28
2022-11-19T19:03:44.659Z,35.75
2022-11-19T19:06:12.292Z,40.92
2022-11-19T19:08:39.472Z,41.28
2022-11-19T19:11:26.924Z,39.33
2022-11-19T19:13:54.533Z,39.53
2022-11-19T19:16:23.054Z,36.20
2022-11-19T19:18:50.334Z,36.85
2022-11-19T19:21:19.849Z,39.45
2022-11-19T19:23:47.633Z,36.47
2022-11-19T19:26:18.062Z,35.72
2022-11-19T19:28:50.619Z,32.90
2022-11-19T19:31:19.574Z,35.03
2022-11-19T19:33:47.877Z,34.33
2022-11-19T19:36:16.689Z,37.13
2022-11-19T19:38:44.272Z,36.22
2022-11-19T19:41:21.051Z,37.67
2022-11-19T19:43:49.690Z,36.58
2022-11-19T19:46:19.186Z,35.38
2022-11-19T19:48:49.106Z,33.20
2022-11-19T19:51:17.849Z,34.70
2022-11-19T19:53:45.691Z,35.58
2022-11-19T19:56:15.903Z,36.05
2022-11-19T19:58:44.748Z,32.58
2022-11-19T20:01:13.592Z,31.10
2022-11-19T20:03:41.226Z,30.83
2022-11-19T20:06:21.457Z,30.55
2022-11-19T20:08:48.954Z,28.52
2022-11-19T20:11:18.902Z,28.50
2022-11-19T20:13:46.523Z,27.27
2022-11-19T20:16:18.466Z,24.63
2022-11-19T20:18:47.392Z,27.60
2022-11-19T20:21:27.043Z,26.75
2022-11-19T20:23:55.471Z,25.88
2022-11-19T20:26:28.963Z,25.90
2022-11-19T20:28:57.956Z,26.92
2022-11-19T20:31:26.894Z,24.58
2022-11-19T20:33:57.379Z,22.30
2022-11-19T20:36:27.608Z,27.23
2022-11-19T20:38:57.434Z,25.95
2022-11-19T20:41:43.832Z,25.75
2022-11-19T20:44:21.826Z,27.50
2022-11-19T20:46:54.425Z,25.52
2022-11-19T20:49:43.449Z,29.27
2022-11-19T20:52:11.210Z,27.05
2022-11-19T20:54:38.544Z,25.02
2022-11-19T20:57:06.125Z,27.38
2022-11-19T20:59:33.379Z,28.13
2022-11-19T21:02:00.956Z,28.48
2022-11-19T21:04:36.391Z,27.90
2022-11-19T21:07:05.192Z,25.73
2022-11-19T21:09:32.676Z,25.63
2022-11-19T21:12:00.216Z,25.42
2022-11-19T21:14:27.545Z,25.42
2022-11-19T21:16:55.015Z,24.83
2022-11-19T21:19:22.562Z,22.65
2022-11-19T21:21:50.330Z,24.50
2022-11-19T21:24:17.531Z,21.40
2022-11-19T21:26:45.419Z,23.50
2022-11-19T21:29:13.117Z,25.90
2022-11-19T21:31:44.004Z,24.98
2022-11-19T21:34:23.160Z,23.67
2022-11-19T21:36:50.738Z,24.33
2022-11-19T21:39:19.416Z,25.60
2022-11-19T21:41:47.145Z,23.77
2022-11-19T21:44:20.776Z,24.63
2022-11-19T21:46:49.224Z,24.30
2022-11-19T21:49:16.468Z,24.05
2022-11-19T21:51:44.263Z,22.38
2022-11-19T21:54:11.419Z,25.48
2022-11-19T21:56:39.267Z,27.52
2022-11-19T21:59:07.394Z,25.63
2022-11-19T22:01:35.480Z,24.27
2022-11-19T22:04:02.813Z,25.17
2022-11-19T22:06:31.975Z,27.38
2022-11-19T22:08:59.302Z,26.10
2022-11-19T22:11:29.462Z,25.80
2022-11-19T22:14:08.583Z,26.02
2022-11-19T22:16:38.780Z,25.30
2022-11-19T22:19:06.639Z,25.58
2022-11-19T22:21:35.565Z,23.73
2022-11-19T22:26:52.766Z,25.70
2022-11-19T22:29:20.342Z,24.75
2022-11-19T22:31:47.976Z,25.13
2022-11-19T22:34:15.200Z,26.25
2022-11-19T22:36:42.953Z,27.55
2022-11-19T22:39:10.290Z,28.23
2022-11-19T22:41:37.698Z,29.98
2022-11-19T22:44:05.461Z,28.73
2022-11-19T22:46:33.193Z,29.17
2022-11-19T22:49:00.408Z,28.35
2022-11-19T22:51:28.118Z,28.27
2022-11-19T22:53:55.924Z,27.55
2022-11-19T22:56:28.903Z,30.00
2022-11-19T22:58:58.390Z,29.30
2022-11-19T23:01:28.423Z,32.42
2022-11-19T23:03:56.986Z,30.88
2022-11-19T23:06:24.839Z,27.27
2022-11-19T23:08:52.849Z,27.73
2022-11-19T23:11:40.596Z,31.50
2022-11-19T23:16:37.543Z,28.08
2022-11-19T23:19:05.472Z,29.10
2022-11-19T23:21:33.374Z,30.10
2022-11-19T23:24:01.177Z,28.65
2022-11-19T23:26:30.825Z,28.95
2022-11-19T23:28:58.230Z,27.73
2022-11-19T23:31:31.160Z,27.77
2022-11-19T23:33:59.656Z,27.48
2022-11-19T23:36:30.082Z,29.38
2022-11-19T23:38:57.911Z,28.27
2022-11-19T23:41:27.328Z,28.20
2022-11-19T23:43:55.723Z,28.10
2022-11-19T23:46:31.668Z,25.40
2022-11-19T23:48:59.949Z,25.40
2022-11-19T23:51:32.798Z,28.13
2022-11-19T23:54:00.697Z,28.23
2022-11-19T23:56:30.591Z,27.70
2022-11-19T23:58:59.536Z,27.98
